createdAt,value
2023-02-05T00:00:46.220Z,13.04
2023-02-05T00:03:13.018Z,13.07
2023-02-05T00:05:39.830Z,13.09
2023-02-05T00:08:06.589Z,13.05
2023-02-05T00:10:33.530Z,13.06
2023-02-05T00:13:00.266Z,12.99
2023-02-05T00:15:27.031Z,12.94
2023-02-05T00:17:53.771Z,12.94
2023-02-05T00:20:20.739Z,12.95
2023-02-05T00:22:47.492Z,12.71
2023-02-05T00:25:14.258Z,12.78
2023-02-05T00:27:41.065Z,12.77
2023-02-05T00:30:08.640Z,12.76
2023-02-05T00:32:35.440Z,12.64
2023-02-05T00:35:02.186Z,12.55
2023-02-05T00:37:28.889Z,12.58
2023-02-05T00:39:55.666Z,12.58
2023-02-05T00:42:22.440Z,12.62
2023-02-05T00:44:49.246Z,12.55
2023-02-05T00:47:16.055Z,12.47
2023-02-05T00:49:42.855Z,12.37
2023-02-05T00:52:09.658Z,12.34
2023-02-05T00:54:37.455Z,12.26
2023-02-05T00:57:04.433Z,12.41
2023-02-05T00:59:31.152Z,12.32
2023-02-05T01:01:57.935Z,12.30
2023-02-05T01:04:24.690Z,12.37
2023-02-05T01:06:51.537Z,12.36
2023-02-05T01:09:18.355Z,12.31
2023-02-05T01:11:45.165Z,12.40
2023-02-05T01:14:11.857Z,12.38
2023-02-05T01:16:38.646Z,12.26
2023-02-05T01:19:05.482Z,12.35
2023-02-05T01:21:32.203Z,12.27
2023-02-05T01:24:01.619Z,12.29
2023-02-05T01:26:28.498Z,12.34
2023-02-05T01:28:55.305Z,12.22
2023-02-05T01:31:22.442Z,12.29
2023-02-05T01:33:49.243Z,12.31
2023-02-05T01:36:16.706Z,12.34
2023-02-05T01:38:43.478Z,12.33
2023-02-05T01:41:12.337Z,12.17
2023-02-05T01:43:39.259Z,12.03
2023-02-05T01:46:24.302Z,12.13
2023-02-05T01:48:54.708Z,12.12
2023-02-05T01:51:22.606Z,11.98
2023-02-05T01:53:49.962Z,11.85
2023-02-05T01:56:22.179Z,11.87
2023-02-05T01:59:00.672Z,11.92
2023-02-05T02:01:29.106Z,11.68
2023-02-05T02:03:59.624Z,11.47
2023-02-05T02:06:26.677Z,11.45
2023-02-05T02:08:53.526Z,11.36
2023-02-05T02:11:23.232Z,11.28
2023-02-05T02:13:53.215Z,11.40
2023-02-05T02:16:21.153Z,11.53
2023-02-05T02:18:47.995Z,11.43
2023-02-05T02:21:42.469Z,11.39
2023-02-05T02:24:14.059Z,11.36
2023-02-05T02:26:55.952Z,11.44
2023-02-05T02:29:47.180Z,11.09
2023-02-05T02:32:25.838Z,11.10
2023-02-05T02:35:18.282Z,11.20
2023-02-05T02:37:56.874Z,11.18
2023-02-05T02:40:45.687Z,11.11
2023-02-05T02:43:32.794Z,11.07
2023-02-05T02:46:09.231Z,11.02
2023-02-05T02:48:39.476Z,11.15
2023-02-05T02:51:08.494Z,11.19
2023-02-05T02:53:39.945Z,11.12
2023-02-05T02:56:10.946Z,11.17
2023-02-05T02:58:56.531Z,11.18
2023-02-05T03:01:26.022Z,11.21
2023-02-05T03:03:59.409Z,11.13
2023-02-05T03:06:30.502Z,11.14
2023-02-05T03:09:29.722Z,11.16
2023-02-05T03:11:56.523Z,10.98
2023-02-05T03:14:25.010Z,10.73
2023-02-05T03:16:53.837Z,10.66
2023-02-05T03:19:20.836Z,10.68
2023-02-05T03:21:54.353Z,10.74
2023-02-05T03:24:22.564Z,10.81
2023-02-05T03:26:49.391Z,10.88
2023-02-05T03:29:27.172Z,10.85
2023-02-05T03:32:17.383Z,10.75
2023-02-05T03:34:50.398Z,10.84
2023-02-05T03:37:40.097Z,10.83
2023-02-05T03:40:40.769Z,10.67
2023-02-05T03:43:19.650Z,10.66
2023-02-05T03:45:56.793Z,10.62
2023-02-05T03:48:32.694Z,10.51
2023-02-05T03:51:23.634Z,10.45
2023-02-05T03:54:08.218Z,10.49
2023-02-05T03:56:54.668Z,10.34
2023-02-05T03:59:23.340Z,10.32
2023-02-05T04:01:51.277Z,10.33
2023-02-05T04:04:19.229Z,10.20
2023-02-05T04:06:47.825Z,9.94
2023-02-05T04:09:14.658Z,9.88
2023-02-05T04:11:41.405Z,9.93
2023-02-05T04:14:08.276Z,9.89
2023-02-05T04:16:37.013Z,9.98
2023-02-05T04:19:04.099Z,10.09
2023-02-05T04:21:30.913Z,10.03
2023-02-05T04:23:58.569Z,10.00
2023-02-05T04:26:25.870Z,10.14
2023-02-05T04:29:03.003Z,10.14
2023-02-05T04:31:33.064Z,10.10
2023-02-05T04:34:00.937Z,9.99
2023-02-05T04:36:27.710Z,10.11
2023-02-05T04:38:54.562Z,10.07
2023-02-05T04:41:22.469Z,10.19
2023-02-05T04:43:49.230Z,10.12
2023-02-05T04:46:16.149Z,10.09
2023-02-05T04:48:43.085Z,10.22
2023-02-05T04:51:12.026Z,10.23
2023-02-05T04:53:39.306Z,10.26
2023-02-05T04:56:15.123Z,10.18
2023-02-05T04:58:42.686Z,9.96
2023-02-05T05:01:18.216Z,9.94
2023-02-05T05:03:45.704Z,9.89
2023-02-05T05:06:12.865Z,9.86
2023-02-05T05:08:39.778Z,9.76
2023-02-05T05:11:12.060Z,9.77
2023-02-05T05:13:39.189Z,9.77
2023-02-05T05:16:07.894Z,9.61
2023-02-05T05:18:35.157Z,9.69
2023-02-05T05:21:02.481Z,9.58
2023-02-05T05:23:29.853Z,9.41
2023-02-05T05:25:56.583Z,9.45
2023-02-05T05:28:23.380Z,9.41
2023-02-05T05:30:50.664Z,9.36
2023-02-05T05:33:17.472Z,9.42
2023-02-05T05:35:45.710Z,9.37
2023-02-05T05:38:12.677Z,9.43
2023-02-05T05:40:58.430Z,9.43
2023-02-05T05:43:43.815Z,9.57
2023-02-05T05:46:10.697Z,9.64
2023-02-05T05:48:37.555Z,9.62
2023-02-05T05:51:04.595Z,9.61
2023-02-05T05:53:31.694Z,9.61
2023-02-05T05:55:58.851Z,9.61
2023-02-05T05:58:25.610Z,9.52
2023-02-05T06:00:52.398Z,9.61
2023-02-05T06:03:19.143Z,9.42
2023-02-05T06:05:45.990Z,9.38
2023-02-05T06:08:14.043Z,9.19
2023-02-05T06:10:40.802Z,9.26
2023-02-05T06:13:08.849Z,9.16
2023-02-05T06:15:36.037Z,9.15
2023-02-05T06:18:03.124Z,9.17
2023-02-05T06:20:29.858Z,9.09
2023-02-05T06:22:56.682Z,9.08
2023-02-05T06:25:23.475Z,9.05
2023-02-05T06:27:50.253Z,9.05
2023-02-05T06:30:17.086Z,9.08
2023-02-05T06:32:43.841Z,9.07
2023-02-05T06:35:10.542Z,9.14
2023-02-05T06:37:48.520Z,9.08
2023-02-05T06:40:18.099Z,9.15
2023-02-05T06:42:45.546Z,9.05
2023-02-05T06:45:12.528Z,9.07
2023-02-05T06:47:39.539Z,8.99
2023-02-05T06:50:08.195Z,9.02
2023-02-05T06:52:34.990Z,9.07
2023-02-05T06:55:01.808Z,9.16
2023-02-05T06:57:28.606Z,8.97
2023-02-05T06:59:55.360Z,8.93
2023-02-05T07:02:22.197Z,8.96
2023-02-05T07:04:49.102Z,8.82
2023-02-05T07:07:17.225Z,8.89
2023-02-05T07:09:44.120Z,8.73
2023-02-05T07:12:11.020Z,8.75
2023-02-05T07:14:39.386Z,8.77
2023-02-05T07:17:06.328Z,8.74
2023-02-05T07:19:33.604Z,8.67
2023-02-05T07:22:00.350Z,8.68
2023-02-05T07:24:27.325Z,8.54
2023-02-05T07:26:54.065Z,8.55
2023-02-05T07:29:20.938Z,8.66
2023-02-05T07:31:49.950Z,8.65
2023-02-05T07:34:16.795Z,8.57
2023-02-05T07:36:43.576Z,8.52
2023-02-05T07:39:10.417Z,8.75
2023-02-05T07:41:37.198Z,8.68
2023-02-05T07:44:05.216Z,8.75
2023-02-05T07:46:31.992Z,8.79
2023-02-05T07:48:58.991Z,8.78
2023-02-05T07:51:26.847Z,8.90
2023-02-05T07:53:54.051Z,8.79
2023-02-05T07:56:25.764Z,8.77
2023-02-05T07:58:52.673Z,8.81
2023-02-05T08:01:19.471Z,9.05
2023-02-05T08:03:46.447Z,8.98
2023-02-05T08:06:15.458Z,9.21
2023-02-05T08:08:42.631Z,9.18
2023-02-05T08:11:14.815Z,9.51
2023-02-05T08:13:42.414Z,9.56
2023-02-05T08:16:10.233Z,9.49
2023-02-05T08:18:37.207Z,9.88
2023-02-05T08:21:04.441Z,9.76
2023-02-05T08:23:31.166Z,9.86
2023-02-05T08:25:59.018Z,10.18
2023-02-05T08:28:27.631Z,10.18
2023-02-05T08:30:56.436Z,10.42
2023-02-05T08:33:23.957Z,10.26
2023-02-05T08:35:51.032Z,10.41
2023-02-05T08:38:17.761Z,10.16
2023-02-05T08:40:44.810Z,10.20
2023-02-05T08:43:12.225Z,10.49
2023-02-05T08:45:39.205Z,10.62
2023-02-05T08:48:06.117Z,10.66
2023-02-05T08:50:32.915Z,10.77
2023-02-05T08:52:59.620Z,10.78
2023-02-05T08:55:26.474Z,10.92
2023-02-05T08:57:53.234Z,11.02
2023-02-05T09:00:21.231Z,10.83
2023-02-05T09:02:47.951Z,10.86
2023-02-05T09:05:14.649Z,11.02
2023-02-05T09:07:41.948Z,11.06
2023-02-05T09:10:14.344Z,11.20
2023-02-05T09:12:41.198Z,11.25
2023-02-05T09:15:08.774Z,11.22
2023-02-05T09:17:35.781Z,11.32
2023-02-05T09:20:02.988Z,11.35
2023-02-05T09:22:29.791Z,11.46
2023-02-05T09:24:56.553Z,11.37
2023-02-05T09:27:23.337Z,11.38
2023-02-05T09:29:50.061Z,11.55
2023-02-05T09:32:16.878Z,11.63
2023-02-05T09:34:43.625Z,11.62
2023-02-05T09:37:10.433Z,11.76
2023-02-05T09:40:19.432Z,11.84
2023-02-05T09:42:45.469Z,11.93
2023-02-05T09:45:40.265Z,11.87
2023-02-05T09:48:10.639Z,12.12
2023-02-05T09:50:39.340Z,12.12
2023-02-05T09:53:12.397Z,12.05
2023-02-05T09:55:44.986Z,12.12
2023-02-05T09:58:16.567Z,12.21
2023-02-05T10:00:50.027Z,12.19
2023-02-05T10:03:42.394Z,12.29
2023-02-05T10:06:30.884Z,12.36
2023-02-05T10:09:32.598Z,12.19
2023-02-05T10:12:43.700Z,12.32
2023-02-05T10:15:30.748Z,12.30
2023-02-05T10:18:13.305Z,12.44
2023-02-05T10:20:58.152Z,12.60
2023-02-05T10:23:40.157Z,12.82
2023-02-05T10:26:14.896Z,12.93
2023-02-05T10:29:11.043Z,13.11
2023-02-05T10:31:56.243Z,13.14
2023-02-05T10:34:38.130Z,13.23
2023-02-05T10:37:12.067Z,13.27
2023-02-05T10:39:38.961Z,13.42
2023-02-05T10:42:12.106Z,13.45
2023-02-05T10:44:44.907Z,13.44
2023-02-05T10:47:37.445Z,13.52
2023-02-05T10:50:14.337Z,13.60
2023-02-05T10:52:41.103Z,13.64
2023-02-05T10:55:13.117Z,13.90
2023-02-05T10:57:39.749Z,13.92
2023-02-05T11:00:19.558Z,13.93
2023-02-05T11:02:50.276Z,13.92
2023-02-05T11:05:24.321Z,14.03
2023-02-05T11:07:53.258Z,14.23
2023-02-05T11:10:24.267Z,14.13
2023-02-05T11:13:02.550Z,14.11
2023-02-05T11:15:31.971Z,14.29
2023-02-05T11:18:00.586Z,14.27
2023-02-05T11:20:34.006Z,14.53
2023-02-05T11:23:21.584Z,14.73
2023-02-05T11:26:15.982Z,14.71
2023-02-05T11:28:42.813Z,14.92
2023-02-05T11:31:31.498Z,15.09
2023-02-05T11:34:07.515Z,15.23
2023-02-05T11:36:36.310Z,15.25
2023-02-05T11:39:05.283Z,15.36
2023-02-05T11:41:51.968Z,15.48
2023-02-05T11:44:30.520Z,15.61
2023-02-05T11:47:00.574Z,15.70
2023-02-05T11:49:39.398Z,15.62
2023-02-05T11:52:15.222Z,15.74
2023-02-05T11:54:47.672Z,15.78
2023-02-05T11:57:20.376Z,15.69
2023-02-05T12:00:18.126Z,15.73
2023-02-05T12:02:45.417Z,15.66
2023-02-05T12:05:12.227Z,15.63
2023-02-05T12:07:47.814Z,15.90
2023-02-05T12:10:17.874Z,15.82
2023-02-05T12:13:02.763Z,16.00
2023-02-05T12:15:37.523Z,16.07
2023-02-05T12:18:07.235Z,16.09
2023-02-05T12:21:09.450Z,16.38
2023-02-05T12:23:57.815Z,16.54
2023-02-05T12:26:39.169Z,16.57
2023-02-05T12:29:32.205Z,16.69
2023-02-05T12:32:19.422Z,16.92
2023-02-05T12:35:10.252Z,17.10
2023-02-05T12:37:42.680Z,17.24
2023-02-05T12:40:33.483Z,17.38
2023-02-05T12:43:12.997Z,17.42
2023-02-05T12:45:45.710Z,17.47
2023-02-05T12:48:39.284Z,17.55
2023-02-05T12:51:42.889Z,17.60
2023-02-05T12:54:24.779Z,17.66
2023-02-05T12:57:15.684Z,17.60
2023-02-05T12:59:45.872Z,17.67
2023-02-05T13:02:27.718Z,17.55
2023-02-05T13:05:21.703Z,17.57
2023-02-05T13:07:59.710Z,17.48
2023-02-05T13:10:46.015Z,17.48
2023-02-05T13:13:19.516Z,17.43
2023-02-05T13:15:51.981Z,17.45
2023-02-05T13:18:27.773Z,17.52
2023-02-05T13:21:38.793Z,17.57
2023-02-05T13:24:51.753Z,17.59
2023-02-05T13:27:58.879Z,17.56
2023-02-05T13:30:34.907Z,17.49
2023-02-05T13:33:05.721Z,17.50
2023-02-05T13:35:43.422Z,17.52
2023-02-05T13:38:40.109Z,17.47
2023-02-05T13:41:12.786Z,17.52
2023-02-05T13:43:48.387Z,17.49
2023-02-05T13:46:30.540Z,17.48
2023-02-05T13:49:09.231Z,17.39
2023-02-05T13:52:03.199Z,17.45
2023-02-05T13:54:38.852Z,17.28
2023-02-05T13:57:24.092Z,17.25
2023-02-05T14:00:00.468Z,17.37
2023-02-05T14:02:34.444Z,17.40
2023-02-05T14:05:05.674Z,17.50
2023-02-05T14:07:45.088Z,17.55
2023-02-05T14:10:36.330Z,17.70
2023-02-05T14:13:12.419Z,17.75
2023-02-05T14:15:42.473Z,17.68
2023-02-05T14:18:33.245Z,17.67
2023-02-05T14:21:00.017Z,17.63
2023-02-05T14:23:49.125Z,17.67
2023-02-05T14:26:37.703Z,17.57
2023-02-05T14:29:44.014Z,17.48
2023-02-05T14:32:39.457Z,17.43
2023-02-05T14:35:32.966Z,17.39
2023-02-05T14:38:19.885Z,17.42
2023-02-05T14:41:08.493Z,17.29
2023-02-05T14:43:38.216Z,17.32
2023-02-05T14:46:26.125Z,17.27
2023-02-05T14:48:59.031Z,17.27
2023-02-05T14:51:44.086Z,17.23
2023-02-05T14:54:23.905Z,17.30
2023-02-05T14:57:59.615Z,17.31
2023-02-05T15:00:04.790Z,17.24
2023-02-05T15:02:55.866Z,17.14
2023-02-05T15:05:41.571Z,17.13
2023-02-05T15:08:17.019Z,17.04
2023-02-05T15:11:24.034Z,17.08
2023-02-05T15:14:19.775Z,16.99
2023-02-05T15:17:05.069Z,16.97
2023-02-05T15:19:43.236Z,16.87
2023-02-05T15:22:34.076Z,16.85
2023-02-05T15:25:03.484Z,16.83
2023-02-05T15:27:43.415Z,16.77
2023-02-05T15:30:18.236Z,16.72
2023-02-05T15:32:55.769Z,16.60
2023-02-05T15:35:26.042Z,16.56
2023-02-05T15:38:01.444Z,16.55
2023-02-05T15:40:32.204Z,16.56
2023-02-05T15:43:25.146Z,16.56
2023-02-05T15:46:07.862Z,16.51
2023-02-05T15:48:39.846Z,16.52
2023-02-05T15:51:33.660Z,16.55
2023-02-05T15:54:05.132Z,16.56
2023-02-05T15:56:38.072Z,16.48
2023-02-05T15:59:10.934Z,16.48
2023-02-05T16:01:45.084Z,16.47
2023-02-05T16:04:37.369Z,16.44
2023-02-05T16:07:19.710Z,16.39
2023-02-05T16:09:48.897Z,16.33
2023-02-05T16:12:15.899Z,16.33
2023-02-05T16:14:43.885Z,16.33
2023-02-05T16:17:26.423Z,16.37
2023-02-05T16:19:56.731Z,16.39
2023-02-05T16:22:35.978Z,16.41
2023-02-05T16:25:26.834Z,16.34
2023-02-05T16:27:55.647Z,16.33
2023-02-05T16:30:42.919Z,16.28
2023-02-05T16:33:38.139Z,16.21
2023-02-05T16:36:15.452Z,16.18
2023-02-05T16:38:42.624Z,16.15
2023-02-05T16:41:31.843Z,16.00
2023-02-05T16:44:01.659Z,16.01
2023-02-05T16:46:33.228Z,16.01
2023-02-05T16:49:08.745Z,15.91
2023-02-05T16:51:59.386Z,15.80
2023-02-05T16:54:31.028Z,15.75
2023-02-05T16:57:24.942Z,15.62
2023-02-05T17:00:01.937Z,15.54
2023-02-05T17:02:40.685Z,15.52
2023-02-05T17:05:30.323Z,15.45
2023-02-05T17:08:00.999Z,15.41
2023-02-05T17:10:33.612Z,15.36
2023-02-05T17:13:06.018Z,15.30
2023-02-05T17:15:45.493Z,15.25
2023-02-05T17:18:26.495Z,15.21
2023-02-05T17:21:31.951Z,15.15
2023-02-05T17:24:01.559Z,15.13
2023-02-05T17:26:35.101Z,15.07
2023-02-05T17:29:15.260Z,15.02
2023-02-05T17:31:47.817Z,14.98
2023-02-05T17:34:21.887Z,14.94
2023-02-05T17:36:48.749Z,14.94
2023-02-05T17:39:15.475Z,14.93
2023-02-05T17:42:02.679Z,14.88
2023-02-05T17:44:39.651Z,14.90
2023-02-05T17:47:10.300Z,14.88
2023-02-05T17:49:39.924Z,14.85
2023-02-05T17:52:15.487Z,14.83
2023-02-05T17:54:51.119Z,14.82
2023-02-05T17:57:20.824Z,14.80
2023-02-05T17:59:57.894Z,14.80
2023-02-05T18:02:26.164Z,14.76
2023-02-05T18:04:56.001Z,14.71
2023-02-05T18:07:32.760Z,14.71
2023-02-05T18:10:04.343Z,14.70
2023-02-05T18:12:35.012Z,14.68
2023-02-05T18:15:18.767Z,14.63
2023-02-05T18:17:50.019Z,14.61
2023-02-05T18:20:21.164Z,14.60
2023-02-05T18:23:06.074Z,14.58
2023-02-05T18:25:32.991Z,14.47
2023-02-05T18:28:00.198Z,14.46
2023-02-05T18:30:27.416Z,14.40
2023-02-05T18:32:54.603Z,14.39
2023-02-05T18:35:21.406Z,14.38
2023-02-05T18:37:50.139Z,14.38
2023-02-05T18:40:18.986Z,14.40
2023-02-05T18:42:52.083Z,14.35
2023-02-05T18:45:19.587Z,14.23
2023-02-05T18:47:48.764Z,14.16
2023-02-05T18:50:19.632Z,14.16
2023-02-05T18:52:50.877Z,14.19
2023-02-05T18:55:21.934Z,14.16
2023-02-05T18:57:51.907Z,14.08
2023-02-05T19:00:19.307Z,14.05
2023-02-05T19:02:50.622Z,14.09
2023-02-05T19:05:17.514Z,14.09
2023-02-05T19:07:47.804Z,14.04
2023-02-05T19:10:15.263Z,14.02
2023-02-05T19:12:42.094Z,13.99
2023-02-05T19:15:09.446Z,13.89
2023-02-05T19:17:36.180Z,13.98
2023-02-05T19:20:03.175Z,13.97
2023-02-05T19:22:30.086Z,13.95
2023-02-05T19:24:56.857Z,13.95
2023-02-05T19:27:25.191Z,13.96
2023-02-05T19:29:52.227Z,13.93
2023-02-05T19:32:19.150Z,13.80
2023-02-05T19:34:46.681Z,13.85
2023-02-05T19:37:13.650Z,13.83
2023-02-05T19:39:40.474Z,13.84
2023-02-05T19:42:07.579Z,13.82
2023-02-05T19:44:37.596Z,13.79
2023-02-05T19:47:06.893Z,13.63
2023-02-05T19:49:33.733Z,13.34
2023-02-05T19:52:01.465Z,13.25
2023-02-05T19:54:29.493Z,13.28
2023-02-05T19:56:56.450Z,13.28
2023-02-05T19:59:23.360Z,13.11
2023-02-05T20:01:50.573Z,13.07
2023-02-05T20:04:22.747Z,13.16
2023-02-05T20:06:49.497Z,13.08
2023-02-05T20:09:17.047Z,12.97
2023-02-05T20:11:46.655Z,12.90
2023-02-05T20:14:14.838Z,13.02
2023-02-05T20:16:42.052Z,13.02
2023-02-05T20:19:12.622Z,12.87
2023-02-05T20:21:40.112Z,12.91
2023-02-05T20:24:08.114Z,12.92
2023-02-05T20:26:36.590Z,12.86
2023-02-05T20:29:22.673Z,12.97
2023-02-05T20:31:54.865Z,12.99
2023-02-05T20:34:25.951Z,13.01
2023-02-05T20:36:54.217Z,13.00
2023-02-05T20:39:23.161Z,12.88
2023-02-05T20:41:52.081Z,12.82
2023-02-05T20:44:19.443Z,12.81
2023-02-05T20:46:51.021Z,12.75
2023-02-05T20:49:22.936Z,12.45
2023-02-05T20:52:03.893Z,12.49
2023-02-05T20:54:33.221Z,12.48
2023-02-05T20:57:05.356Z,12.42
2023-02-05T20:59:35.623Z,12.44
2023-02-05T21:02:05.692Z,12.41
2023-02-05T21:04:43.944Z,12.53
2023-02-05T21:07:14.680Z,12.55
2023-02-05T21:09:41.991Z,12.61
2023-02-05T21:12:08.798Z,12.46
2023-02-05T21:14:38.942Z,12.40
2023-02-05T21:17:11.297Z,12.25
2023-02-05T21:19:41.365Z,12.25
2023-02-05T21:22:08.334Z,12.05
2023-02-05T21:24:35.393Z,12.09
2023-02-05T21:27:08.656Z,12.12
2023-02-05T21:29:35.494Z,11.96
2023-02-05T21:32:02.331Z,11.71
2023-02-05T21:34:29.739Z,11.80
2023-02-05T21:37:14.764Z,11.70
2023-02-05T21:39:45.811Z,11.84
2023-02-05T21:42:12.753Z,11.95
2023-02-05T21:44:39.499Z,11.83
2023-02-05T21:47:06.469Z,11.91
2023-02-05T21:49:33.380Z,11.84
2023-02-05T21:52:00.231Z,11.90
2023-02-05T21:54:36.307Z,11.90
2023-02-05T21:57:03.143Z,11.84
2023-02-05T21:59:29.921Z,11.79
2023-02-05T22:01:56.801Z,11.68
2023-02-05T22:04:23.600Z,11.61
2023-02-05T22:06:53.299Z,11.25
2023-02-05T22:09:20.614Z,10.91
2023-02-05T22:11:49.212Z,10.80
2023-02-05T22:14:21.232Z,10.90
2023-02-05T22:16:48.007Z,11.06
2023-02-05T22:19:17.587Z,10.87
2023-02-05T22:21:51.199Z,10.79
2023-02-05T22:24:19.303Z,10.81
2023-02-05T22:26:49.285Z,10.76
2023-02-05T22:29:19.573Z,10.82
2023-02-05T22:31:51.095Z,10.85
2023-02-05T22:34:46.654Z,10.78
2023-02-05T22:37:13.823Z,10.64
2023-02-05T22:39:46.223Z,10.66
2023-02-05T22:42:23.136Z,10.60
2023-02-05T22:44:49.906Z,10.49
2023-02-05T22:47:22.082Z,10.52
2023-02-05T22:49:51.536Z,10.44
2023-02-05T22:52:18.337Z,10.61
2023-02-05T22:54:51.284Z,10.32
2023-02-05T22:57:18.135Z,10.26
2023-02-05T22:59:50.325Z,10.30
2023-02-05T23:02:22.281Z,10.28
2023-02-05T23:04:52.762Z,10.34
2023-02-05T23:07:19.502Z,10.51
2023-02-05T23:09:46.374Z,10.59
2023-02-05T23:12:13.288Z,10.51
2023-02-05T23:14:43.466Z,10.61
2023-02-05T23:17:10.263Z,10.74
2023-02-05T23:19:47.072Z,10.85
2023-02-05T23:22:13.779Z,10.94
2023-02-05T23:24:43.823Z,10.95
2023-02-05T23:27:14.884Z,11.05
2023-02-05T23:29:44.804Z,11.10
2023-02-05T23:32:25.136Z,11.03
2023-02-05T23:34:52.100Z,11.06
2023-02-05T23:37:23.574Z,11.10
2023-02-05T23:39:53.227Z,11.12
2023-02-05T23:42:23.122Z,11.00
2023-02-05T23:44:52.316Z,10.97
2023-02-05T23:47:24.102Z,10.89
2023-02-05T23:49:53.548Z,11.00
2023-02-05T23:52:21.346Z,11.03
2023-02-05T23:54:50.390Z,11.03
2023-02-05T23:57:22.229Z,11.06
2023-02-05T23:59:49.323Z,11.12
